createdAt,value
2023-04-23T00:00:23.442Z,4.67
2023-04-23T00:04:08.694Z,5.22
2023-04-23T00:07:50.606Z,4.60
2023-04-23T00:11:32.555Z,5.63
2023-04-23T00:15:15.245Z,4.80
2023-04-23T00:18:56.955Z,5.97
2023-04-23T00:22:38.675Z,4.80
2023-04-23T00:26:20.775Z,5.72
2023-04-23T00:30:03.877Z,5.30
2023-04-23T00:33:45.632Z,5.28
2023-04-23T00:37:27.358Z,4.80
2023-04-23T00:41:09.283Z,4.88
2023-04-23T00:44:52.214Z,5.78
2023-04-23T00:48:34.964Z,5.57
2023-04-23T00:52:16.946Z,5.38
2023-04-23T00:55:59.750Z,5.35
2023-04-23T00:59:41.604Z,5.75
2023-04-23T01:03:25.475Z,5.75
2023-04-23T01:07:07.649Z,5.05
2023-04-23T01:10:49.675Z,4.60
2023-04-23T01:14:31.510Z,4.68
2023-04-23T01:18:13.883Z,5.38
2023-04-23T01:21:56.418Z,4.13
2023-04-23T01:25:38.481Z,4.65
2023-04-23T01:29:21.326Z,3.92
2023-04-23T01:33:05.524Z,3.60
2023-04-23T01:36:48.902Z,3.53
2023-04-23T01:40:30.796Z,3.70
2023-04-23T01:44:12.560Z,3.72
2023-04-23T01:47:54.431Z,3.65
2023-04-23T01:51:36.189Z,4.00
2023-04-23T01:55:19.304Z,4.63
2023-04-23T01:59:01.766Z,4.85
2023-04-23T02:02:45.153Z,5.47
2023-04-23T02:06:27.585Z,5.05
2023-04-23T02:10:10.023Z,5.73
2023-04-23T02:13:51.711Z,5.40
2023-04-23T02:17:33.786Z,5.45
2023-04-23T02:21:15.516Z,5.55
2023-04-23T02:24:58.387Z,5.97
2023-04-23T02:28:40.417Z,5.53
2023-04-23T02:32:22.204Z,5.47
2023-04-23T02:36:04.076Z,5.90
2023-04-23T02:39:45.861Z,6.70
2023-04-23T02:43:27.575Z,7.07
2023-04-23T02:47:09.266Z,7.38
2023-04-23T02:50:51.074Z,10.05
2023-04-23T02:54:32.909Z,10.50
2023-04-23T02:58:14.648Z,9.93
2023-04-23T03:01:56.404Z,10.57
2023-04-23T03:05:38.145Z,10.52
2023-04-23T03:09:19.913Z,9.90
2023-04-23T03:13:01.624Z,10.88
2023-04-23T03:16:43.364Z,11.15
2023-04-23T03:20:25.520Z,11.18
2023-04-23T03:24:07.884Z,10.82
2023-04-23T03:27:52.213Z,11.80
2023-04-23T03:31:33.968Z,11.18
2023-04-23T03:35:15.797Z,11.52
2023-04-23T03:38:57.584Z,11.27
2023-04-23T03:42:39.317Z,10.75
2023-04-23T03:46:21.104Z,10.77
2023-04-23T03:50:03.082Z,11.35
2023-04-23T03:53:46.084Z,11.38
2023-04-23T03:57:27.783Z,12.45
2023-04-23T04:01:09.538Z,10.13
2023-04-23T04:04:51.886Z,10.93
2023-04-23T04:08:33.748Z,10.30
2023-04-23T04:12:16.372Z,9.85
2023-04-23T04:15:58.131Z,10.80
2023-04-23T04:19:39.821Z,10.95
2023-04-23T04:23:21.704Z,11.68
2023-04-23T04:27:04.741Z,11.23
2023-04-23T04:30:47.312Z,9.60
2023-04-23T04:34:29.335Z,9.18
2023-04-23T04:38:11.366Z,10.63
2023-04-23T04:41:54.439Z,10.60
2023-04-23T04:45:36.164Z,10.18
2023-04-23T04:49:19.552Z,10.43
2023-04-23T04:53:01.308Z,13.45
2023-04-23T04:56:43.055Z,12.45
2023-04-23T05:00:29.289Z,14.50
2023-04-23T05:04:11.333Z,14.38
2023-04-23T05:07:54.408Z,12.55
2023-04-23T05:11:36.158Z,12.82
2023-04-23T05:15:17.973Z,12.95
2023-04-23T05:18:59.789Z,12.73
2023-04-23T05:22:42.717Z,12.45
2023-04-23T05:26:24.391Z,12.40
2023-04-23T05:30:08.489Z,11.50
2023-04-23T05:33:50.896Z,11.00
2023-04-23T05:37:32.852Z,13.07
2023-04-23T05:41:15.552Z,12.13
2023-04-23T05:44:57.291Z,10.77
2023-04-23T05:48:39.067Z,10.98
2023-04-23T05:52:21.023Z,12.27
2023-04-23T05:56:02.764Z,12.00
2023-04-23T05:59:44.443Z,13.23
2023-04-23T06:03:27.042Z,13.00
2023-04-23T06:07:08.914Z,14.63
2023-04-23T06:10:50.912Z,12.93
2023-04-23T06:14:32.609Z,13.90
2023-04-23T06:18:14.377Z,13.93
2023-04-23T06:21:56.406Z,15.55
2023-04-23T06:25:38.212Z,14.18
2023-04-23T06:29:20.092Z,15.23
2023-04-23T06:33:02.374Z,14.82
2023-04-23T06:36:44.124Z,13.97
2023-04-23T06:40:25.894Z,15.10
2023-04-23T06:44:07.665Z,15.70
2023-04-23T06:47:49.851Z,15.05
2023-04-23T06:51:32.134Z,14.50
2023-04-23T06:55:13.852Z,15.63
2023-04-23T06:58:55.766Z,14.13
2023-04-23T07:02:38.119Z,15.00
2023-04-23T07:06:20.456Z,15.38
2023-04-23T07:10:02.180Z,13.80
2023-04-23T07:13:43.913Z,14.38
2023-04-23T07:17:25.881Z,14.07
2023-04-23T07:21:07.637Z,12.90
2023-04-23T07:24:49.406Z,12.60
2023-04-23T07:28:32.158Z,14.85
2023-04-23T07:32:13.984Z,15.68
2023-04-23T07:35:55.755Z,14.35
2023-04-23T07:39:37.478Z,13.32
2023-04-23T07:43:19.325Z,14.88
2023-04-23T07:47:01.039Z,14.70
2023-04-23T07:50:42.793Z,14.63
2023-04-23T07:54:25.716Z,12.43
2023-04-23T08:01:49.341Z,12.10
2023-04-23T08:05:31.190Z,11.23
2023-04-23T08:09:12.947Z,10.15
2023-04-23T08:12:54.747Z,11.05
2023-04-23T08:16:38.744Z,10.57
2023-04-23T08:20:21.027Z,11.40
2023-04-23T08:24:03.205Z,12.25
2023-04-23T08:27:45.026Z,12.23
2023-04-23T08:31:27.620Z,9.98
2023-04-23T08:35:09.613Z,10.38
2023-04-23T08:38:51.303Z,11.38
2023-04-23T08:42:45.090Z,10.10
2023-04-23T08:46:31.478Z,9.98
2023-04-23T08:50:18.559Z,9.10
2023-04-23T08:54:05.911Z,9.02
2023-04-23T08:57:48.178Z,8.35
2023-04-23T09:01:30.790Z,6.80
2023-04-23T09:05:13.603Z,6.30
2023-04-23T09:08:56.083Z,4.50
2023-04-23T09:12:40.410Z,6.18
2023-04-23T09:16:22.299Z,6.50
2023-04-23T09:20:05.963Z,7.78
2023-04-23T09:23:54.989Z,7.15
2023-04-23T09:27:39.520Z,7.65
2023-04-23T09:31:23.885Z,8.55
2023-04-23T09:35:07.513Z,8.57
2023-04-23T09:38:49.914Z,7.10
2023-04-23T09:42:33.106Z,6.90
2023-04-23T09:46:14.821Z,5.53
2023-04-23T09:49:57.761Z,4.20
2023-04-23T09:53:44.166Z,3.38
2023-04-23T09:57:26.630Z,4.10
2023-04-23T10:01:09.599Z,3.65
2023-04-23T10:05:00.623Z,4.07
2023-04-23T10:08:46.606Z,5.53
2023-04-23T10:12:46.680Z,5.72
2023-04-23T10:16:35.776Z,6.05
2023-04-23T10:20:24.107Z,5.63
2023-04-23T10:24:07.285Z,5.13
2023-04-23T10:27:54.197Z,4.90
2023-04-23T10:31:37.533Z,6.03
2023-04-23T10:35:19.457Z,5.78
2023-04-23T10:39:04.274Z,4.97
2023-04-23T10:42:47.321Z,5.78
2023-04-23T10:50:29.259Z,4.43
2023-04-23T10:54:11.434Z,4.93
2023-04-23T10:58:04.984Z,4.70
2023-04-23T11:01:50.860Z,5.32
2023-04-23T11:05:35.442Z,5.45
2023-04-23T11:09:38.363Z,5.32
2023-04-23T11:13:22.178Z,5.18
2023-04-23T11:17:06.751Z,5.80
2023-04-23T11:20:50.233Z,4.85
2023-04-23T11:24:33.413Z,4.90
2023-04-23T11:28:16.227Z,5.63
2023-04-23T11:32:03.087Z,4.82
2023-04-23T11:35:45.693Z,4.70
2023-04-23T11:39:28.318Z,3.95
2023-04-23T11:43:10.166Z,6.18
2023-04-23T11:46:51.910Z,5.57
2023-04-23T11:50:35.472Z,5.05
2023-04-23T11:54:17.249Z,5.03
2023-04-23T11:57:59.058Z,4.22
2023-04-23T12:01:48.840Z,4.82
2023-04-23T12:05:57.015Z,4.82
2023-04-23T12:09:39.149Z,5.93
2023-04-23T12:13:30.727Z,5.03
2023-04-23T12:17:12.490Z,4.07
2023-04-23T12:20:54.296Z,3.85
2023-04-23T12:25:07.783Z,4.20
2023-04-23T12:32:39.812Z,4.13
2023-04-23T12:36:30.794Z,4.43
2023-04-23T12:40:12.493Z,3.75
2023-04-23T12:43:54.196Z,4.50
2023-04-23T12:47:35.932Z,4.10
2023-04-23T12:51:17.644Z,4.32
2023-04-23T12:55:01.273Z,4.15
2023-04-23T12:58:43.019Z,3.38
2023-04-23T13:02:25.972Z,4.47
2023-04-23T13:06:08.111Z,4.13
2023-04-23T13:09:49.790Z,3.93
2023-04-23T13:13:31.578Z,4.70
2023-04-23T13:17:13.320Z,4.95
2023-04-23T13:20:55.083Z,4.93
2023-04-23T13:24:36.778Z,5.38
2023-04-23T13:28:18.499Z,4.97
2023-04-23T13:32:00.990Z,6.07
2023-04-23T13:35:42.810Z,6.07
2023-04-23T13:39:24.907Z,6.80
2023-04-23T13:43:06.740Z,5.87
2023-04-23T13:46:49.573Z,6.13
2023-04-23T13:50:31.453Z,7.00
2023-04-23T13:54:13.201Z,6.53
2023-04-23T13:57:57.878Z,5.68
2023-04-23T14:01:39.824Z,5.97
2023-04-23T14:05:21.795Z,6.15
2023-04-23T14:09:03.806Z,5.82
2023-04-23T14:12:46.687Z,6.60
2023-04-23T14:16:28.563Z,7.32
2023-04-23T14:20:11.014Z,6.32
2023-04-23T14:23:56.578Z,6.78
2023-04-23T14:27:44.640Z,7.70
2023-04-23T14:31:26.388Z,6.50
2023-04-23T14:35:08.558Z,6.03
2023-04-23T14:38:50.431Z,5.50
2023-04-23T14:42:32.274Z,3.55
2023-04-23T14:46:14.427Z,4.90
2023-04-23T14:49:57.607Z,5.67
2023-04-23T14:53:39.421Z,5.95
2023-04-23T14:57:21.407Z,5.60
2023-04-23T15:01:05.780Z,6.22
2023-04-23T15:04:49.189Z,6.32
2023-04-23T15:08:31.167Z,6.00
2023-04-23T15:12:52.684Z,6.88
2023-04-23T15:20:22.154Z,6.85
2023-04-23T15:24:04.130Z,5.70
2023-04-23T15:27:46.051Z,5.05
2023-04-23T15:31:27.793Z,4.20
2023-04-23T15:35:09.722Z,3.97
2023-04-23T15:38:51.523Z,3.92
2023-04-23T15:42:33.307Z,4.20
2023-04-23T15:46:15.080Z,4.00
2023-04-23T15:49:56.864Z,4.60
2023-04-23T15:53:38.579Z,3.70
2023-04-23T15:57:20.284Z,3.42
2023-04-23T16:04:46.050Z,3.38
2023-04-23T16:08:28.056Z,3.05
2023-04-23T16:12:10.721Z,3.75
2023-04-23T16:15:53.016Z,3.53
2023-04-23T16:19:34.735Z,4.10
2023-04-23T16:23:16.454Z,4.65
2023-04-23T16:26:58.381Z,4.85
2023-04-23T16:30:40.320Z,3.80
2023-04-23T16:34:22.097Z,4.10
2023-04-23T16:38:03.852Z,3.90
2023-04-23T16:41:45.626Z,3.95
2023-04-23T16:45:27.385Z,4.00
2023-04-23T16:49:09.088Z,3.88
2023-04-23T16:52:50.814Z,4.55
2023-04-23T16:56:33.199Z,2.85
2023-04-23T17:00:16.576Z,3.45
2023-04-23T17:03:58.375Z,6.25
2023-04-23T17:07:43.840Z,3.65
2023-04-23T17:11:29.777Z,5.20
2023-04-23T17:15:11.805Z,4.75
2023-04-23T17:18:54.294Z,5.47
2023-04-23T17:22:36.260Z,4.13
2023-04-23T17:26:17.982Z,3.97
2023-04-23T17:29:59.666Z,4.18
2023-04-23T17:33:43.462Z,3.45
2023-04-23T17:37:25.399Z,3.75
2023-04-23T17:41:07.265Z,3.92
2023-04-23T17:44:49.003Z,4.05
2023-04-23T17:48:30.806Z,4.35
2023-04-23T17:52:12.539Z,4.28
2023-04-23T17:55:58.590Z,3.50
2023-04-23T17:59:40.509Z,3.53
2023-04-23T18:03:23.490Z,4.75
2023-04-23T18:10:47.873Z,5.32
2023-04-23T18:14:29.612Z,4.82
2023-04-23T18:18:11.766Z,5.15
2023-04-23T18:21:54.871Z,6.07
2023-04-23T18:25:36.805Z,5.47
2023-04-23T18:29:18.504Z,5.57
2023-04-23T18:33:13.919Z,5.28
2023-04-23T18:36:56.128Z,5.90
2023-04-23T18:40:38.016Z,4.60
2023-04-23T18:44:19.784Z,5.82
2023-04-23T18:48:26.720Z,6.35
2023-04-23T18:52:08.414Z,6.97
2023-04-23T18:55:50.222Z,5.82
2023-04-23T18:59:37.156Z,7.43
2023-04-23T19:03:26.021Z,7.03
2023-04-23T19:07:09.161Z,7.18
2023-04-23T19:10:50.854Z,5.65
2023-04-23T19:14:32.809Z,5.25
2023-04-23T19:18:14.736Z,5.40
2023-04-23T19:21:56.568Z,5.85
2023-04-23T19:25:38.438Z,6.45
2023-04-23T19:29:22.344Z,5.40
2023-04-23T19:33:05.680Z,6.40
2023-04-23T19:36:47.499Z,6.47
2023-04-23T19:40:29.250Z,7.03
2023-04-23T19:44:10.944Z,6.35
2023-04-23T19:47:53.480Z,7.43
2023-04-23T19:51:37.913Z,9.52
2023-04-23T19:55:22.322Z,7.97
2023-04-23T19:59:04.140Z,7.72
2023-04-23T20:02:46.042Z,6.65
2023-04-23T20:06:29.190Z,8.75
2023-04-23T20:10:11.317Z,13.52
2023-04-23T20:13:53.031Z,11.25
2023-04-23T20:17:35.117Z,9.85
2023-04-23T20:21:16.890Z,10.10
2023-04-23T20:24:59.128Z,9.23
2023-04-23T20:28:40.907Z,10.00
2023-04-23T20:32:22.684Z,9.68
2023-04-23T20:36:04.684Z,10.05
2023-04-23T20:39:47.210Z,9.38
2023-04-23T20:43:37.714Z,9.40
2023-04-23T20:47:20.670Z,9.63
2023-04-23T20:51:03.100Z,11.90
2023-04-23T20:54:45.950Z,11.20
2023-04-23T20:58:30.122Z,11.60
2023-04-23T21:02:15.468Z,11.55
2023-04-23T21:05:59.021Z,10.68
2023-04-23T21:09:41.291Z,11.10
2023-04-23T21:13:24.348Z,12.68
2023-04-23T21:17:09.836Z,12.20
2023-04-23T21:20:52.145Z,13.20
2023-04-23T21:24:35.042Z,12.63
2023-04-23T21:28:16.988Z,12.13
2023-04-23T21:31:58.748Z,11.48
2023-04-23T21:35:40.685Z,10.27
2023-04-23T21:39:22.445Z,10.35
2023-04-23T21:43:05.497Z,10.05
2023-04-23T21:46:47.923Z,9.68
2023-04-23T21:50:31.476Z,13.80
2023-04-23T21:54:13.229Z,10.90
2023-04-23T21:58:03.277Z,10.00
2023-04-23T22:01:55.388Z,11.52
2023-04-23T22:05:37.192Z,11.90
2023-04-23T22:09:19.077Z,10.98
2023-04-23T22:13:01.287Z,14.20
2023-04-23T22:16:43.069Z,13.45
2023-04-23T22:20:24.819Z,10.90
2023-04-23T22:24:07.191Z,10.35
2023-04-23T22:27:48.917Z,10.73
2023-04-23T22:31:30.690Z,10.65
2023-04-23T22:35:12.499Z,9.30
2023-04-23T22:38:54.894Z,10.30
2023-04-23T22:42:37.403Z,10.80
2023-04-23T22:46:19.211Z,9.57
2023-04-23T22:50:01.711Z,9.50
2023-04-23T22:53:43.415Z,11.70
2023-04-23T22:57:25.484Z,9.45
2023-04-23T23:01:07.284Z,10.43
2023-04-23T23:04:49.108Z,10.48
2023-04-23T23:08:30.832Z,10.15
2023-04-23T23:12:12.591Z,9.43
2023-04-23T23:15:54.383Z,9.23
2023-04-23T23:19:36.176Z,8.45
2023-04-23T23:23:17.977Z,9.15
2023-04-23T23:26:59.732Z,8.68
2023-04-23T23:30:42.104Z,10.15
2023-04-23T23:34:23.869Z,11.03
2023-04-23T23:38:05.681Z,12.88
2023-04-23T23:41:47.518Z,9.38
2023-04-23T23:45:29.327Z,9.13
2023-04-23T23:49:11.457Z,9.40
2023-04-23T23:52:54.183Z,8.70
2023-04-23T23:56:35.902Z,9.32
